createdAt,value
2018-08-17T00:00:51.454Z,14.50
2018-08-17T00:03:19.790Z,14.40
2018-08-17T00:05:48.131Z,14.50
2018-08-17T00:08:16.457Z,14.40
2018-08-17T00:10:44.731Z,14.40
2018-08-17T00:13:13.274Z,14.40
2018-08-17T00:15:42.070Z,14.50
2018-08-17T00:18:10.621Z,14.50
2018-08-17T00:20:38.923Z,14.50
2018-08-17T00:23:07.200Z,14.50
2018-08-17T00:25:35.510Z,14.50
2018-08-17T00:28:03.859Z,14.50
2018-08-17T00:30:32.157Z,14.50
2018-08-17T00:33:00.541Z,14.50
2018-08-17T00:35:28.836Z,14.50
2018-08-17T00:37:57.343Z,14.50
2018-08-17T00:40:25.615Z,14.50
2018-08-17T00:42:53.942Z,14.40
2018-08-17T00:45:22.247Z,14.40
2018-08-17T00:47:50.509Z,14.40
2018-08-17T00:50:19.699Z,14.40
2018-08-17T00:52:47.997Z,14.40
2018-08-17T00:55:16.489Z,14.30
2018-08-17T00:57:44.785Z,14.10
2018-08-17T01:00:13.387Z,14.00
2018-08-17T01:02:41.655Z,14.00
2018-08-17T01:05:10.145Z,13.90
2018-08-17T01:07:38.538Z,13.80
2018-08-17T01:10:06.948Z,13.80
2018-08-17T01:12:35.258Z,13.90
2018-08-17T01:15:03.608Z,13.90
2018-08-17T01:17:31.893Z,13.90
2018-08-17T01:20:00.209Z,13.80
2018-08-17T01:22:28.476Z,13.90
2018-08-17T01:24:56.769Z,13.80
2018-08-17T01:27:25.085Z,13.70
2018-08-17T01:29:53.396Z,13.60
2018-08-17T01:32:21.859Z,13.50
2018-08-17T01:34:50.162Z,13.50
2018-08-17T01:37:18.581Z,13.50
2018-08-17T01:39:47.026Z,13.50
2018-08-17T01:42:15.426Z,13.40
2018-08-17T01:44:43.747Z,13.50
2018-08-17T01:47:12.558Z,13.50
2018-08-17T01:49:41.223Z,13.50
2018-08-17T01:52:09.506Z,13.50
2018-08-17T01:54:37.842Z,13.50
2018-08-17T01:57:06.170Z,13.40
2018-08-17T01:59:34.442Z,13.40
2018-08-17T02:02:02.725Z,13.40
2018-08-17T02:04:31.049Z,13.40
2018-08-17T02:06:59.396Z,13.30
2018-08-17T02:09:27.687Z,13.20
2018-08-17T02:11:56.008Z,13.20
2018-08-17T02:14:24.279Z,13.20
2018-08-17T02:16:53.365Z,13.20
2018-08-17T02:19:22.212Z,13.20
2018-08-17T02:21:50.487Z,13.20
2018-08-17T02:24:19.935Z,13.10
2018-08-17T02:26:54.774Z,13.20
2018-08-17T02:29:23.256Z,13.20
2018-08-17T02:31:51.535Z,13.20
2018-08-17T02:34:19.901Z,13.20
2018-08-17T02:36:48.163Z,13.20
2018-08-17T02:39:16.628Z,13.20
2018-08-17T02:41:44.932Z,13.10
2018-08-17T02:44:13.354Z,12.90
2018-08-17T02:46:41.732Z,12.80
2018-08-17T02:49:10.674Z,12.80
2018-08-17T02:51:38.991Z,12.80
2018-08-17T02:54:07.347Z,12.80
2018-08-17T02:56:35.652Z,12.70
2018-08-17T02:59:03.946Z,12.70
2018-08-17T03:01:39.004Z,12.80
2018-08-17T03:04:07.322Z,12.70
2018-08-17T03:06:35.615Z,12.60
2018-08-17T03:09:05.273Z,12.60
2018-08-17T03:11:33.599Z,12.50
2018-08-17T03:14:02.077Z,12.40
2018-08-17T03:16:30.407Z,12.40
2018-08-17T03:18:58.700Z,12.40
2018-08-17T03:21:26.981Z,12.40
2018-08-17T03:23:55.264Z,12.40
2018-08-17T03:26:23.637Z,12.40
2018-08-17T03:28:51.995Z,12.50
2018-08-17T03:31:20.541Z,12.50
2018-08-17T03:33:48.813Z,12.50
2018-08-17T03:36:17.310Z,12.50
2018-08-17T03:38:45.611Z,12.60
2018-08-17T03:41:14.226Z,12.50
2018-08-17T03:43:42.519Z,12.40
2018-08-17T03:46:10.847Z,12.40
2018-08-17T03:48:39.119Z,12.30
2018-08-17T03:51:07.411Z,12.30
2018-08-17T03:53:35.706Z,12.40
2018-08-17T03:56:03.981Z,12.40
2018-08-17T03:58:32.261Z,12.40
2018-08-17T04:01:00.598Z,12.40
2018-08-17T04:03:28.879Z,12.30
2018-08-17T04:05:57.155Z,12.30
2018-08-17T04:08:25.583Z,12.30
2018-08-17T04:10:53.861Z,12.40
2018-08-17T04:13:22.357Z,12.30
2018-08-17T04:15:50.923Z,12.30
2018-08-17T04:18:19.386Z,12.20
2018-08-17T04:20:47.686Z,12.20
2018-08-17T04:23:16.139Z,12.20
2018-08-17T04:25:44.455Z,12.10
2018-08-17T04:28:12.741Z,12.10
2018-08-17T04:30:41.076Z,12.10
2018-08-17T04:33:09.527Z,12.10
2018-08-17T04:35:37.794Z,12.20
2018-08-17T04:38:06.149Z,12.20
2018-08-17T04:40:34.429Z,12.30
2018-08-17T04:43:02.695Z,12.30
2018-08-17T04:45:31.068Z,12.30
2018-08-17T04:47:59.449Z,12.40
2018-08-17T04:50:27.837Z,12.50
2018-08-17T04:52:56.201Z,12.60
2018-08-17T04:55:24.770Z,12.70
2018-08-17T04:57:53.087Z,12.80
2018-08-17T05:00:21.605Z,12.80
2018-08-17T05:02:49.949Z,12.90
2018-08-17T05:05:18.380Z,13.00
2018-08-17T05:07:46.728Z,13.10
2018-08-17T05:10:15.039Z,13.20
2018-08-17T05:12:43.373Z,13.40
2018-08-17T05:15:11.711Z,13.50
2018-08-17T05:17:40.081Z,13.70
2018-08-17T05:20:08.478Z,13.90
2018-08-17T05:22:36.821Z,14.10
2018-08-17T05:25:05.549Z,14.30
2018-08-17T05:27:33.861Z,14.50
2018-08-17T05:30:02.197Z,14.80
2018-08-17T05:32:30.481Z,15.00
2018-08-17T05:34:58.966Z,15.20
2018-08-17T05:37:27.420Z,15.50
2018-08-17T05:39:55.719Z,15.60
2018-08-17T05:42:24.158Z,15.90
2018-08-17T05:44:52.711Z,16.10
2018-08-17T05:47:21.354Z,16.50
2018-08-17T05:49:49.600Z,16.80
2018-08-17T05:52:18.383Z,17.20
2018-08-17T05:54:46.669Z,17.50
2018-08-17T05:57:15.051Z,17.90
2018-08-17T05:59:43.389Z,18.10
2018-08-17T06:02:11.813Z,18.50
2018-08-17T06:04:40.128Z,18.60
2018-08-17T06:07:08.626Z,18.90
2018-08-17T06:09:36.914Z,19.00
2018-08-17T06:12:05.205Z,19.20
2018-08-17T06:14:33.511Z,19.50
2018-08-17T06:17:01.837Z,20.00
2018-08-17T06:19:30.201Z,20.40
2018-08-17T06:21:58.532Z,20.70
2018-08-17T06:24:26.815Z,21.00
2018-08-17T06:26:55.103Z,21.30
2018-08-17T06:29:23.650Z,21.60
2018-08-17T06:31:51.986Z,22.60
2018-08-17T06:34:21.225Z,23.70
2018-08-17T06:36:49.565Z,24.80
2018-08-17T06:39:17.843Z,25.90
2018-08-17T06:41:46.327Z,26.90
2018-08-17T06:44:14.703Z,27.80
2018-08-17T06:46:43.067Z,28.60
2018-08-17T06:49:11.513Z,29.20
2018-08-17T06:51:39.887Z,30.30
2018-08-17T06:54:08.217Z,31.00
2018-08-17T06:56:36.578Z,31.60
2018-08-17T06:59:05.458Z,31.50
2018-08-17T07:01:33.734Z,31.70
2018-08-17T07:04:02.033Z,32.40
2018-08-17T07:06:30.348Z,32.80
2018-08-17T07:08:58.852Z,33.30
2018-08-17T07:11:27.111Z,33.50
2018-08-17T07:13:55.405Z,33.30
2018-08-17T07:16:23.720Z,33.50
2018-08-17T07:18:52.016Z,33.70
2018-08-17T07:21:20.729Z,33.50
2018-08-17T07:23:49.020Z,34.00
2018-08-17T07:26:17.287Z,34.20
2018-08-17T07:28:45.596Z,34.30
2018-08-17T07:31:13.887Z,34.70
2018-08-17T07:33:42.191Z,34.70
2018-08-17T07:36:10.557Z,34.40
2018-08-17T07:38:38.910Z,34.50
2018-08-17T07:41:07.187Z,34.70
2018-08-17T07:43:35.489Z,35.10
2018-08-17T07:46:03.787Z,35.20
2018-08-17T07:48:32.084Z,35.50
2018-08-17T07:51:00.404Z,35.10
2018-08-17T07:53:28.694Z,35.00
2018-08-17T07:55:56.969Z,35.10
2018-08-17T07:58:25.284Z,35.50
2018-08-17T08:00:53.736Z,35.00
2018-08-17T08:03:22.083Z,35.20
2018-08-17T08:05:50.471Z,36.40
2018-08-17T08:08:18.771Z,36.20
2018-08-17T08:10:47.097Z,35.80
2018-08-17T08:13:15.412Z,36.70
2018-08-17T08:15:44.083Z,35.70
2018-08-17T08:18:12.366Z,35.30
2018-08-17T08:20:43.115Z,35.00
2018-08-17T08:23:22.459Z,35.40
2018-08-17T08:25:50.805Z,36.30
2018-08-17T08:28:19.190Z,36.50
2018-08-17T08:30:47.824Z,36.40
2018-08-17T08:33:16.190Z,36.40
2018-08-17T08:35:44.548Z,36.70
2018-08-17T08:38:12.875Z,36.80
2018-08-17T08:40:41.243Z,36.90
2018-08-17T08:43:09.581Z,37.40
2018-08-17T08:45:37.938Z,37.30
2018-08-17T08:48:07.055Z,37.10
2018-08-17T08:50:35.391Z,35.80
2018-08-17T08:53:03.692Z,35.50
2018-08-17T08:55:32.052Z,35.40
2018-08-17T08:58:00.492Z,35.40
2018-08-17T09:00:28.924Z,35.00
2018-08-17T09:02:57.311Z,34.40
2018-08-17T09:05:25.723Z,33.40
2018-08-17T09:07:54.049Z,32.20
2018-08-17T09:10:22.556Z,31.50
2018-08-17T09:12:50.842Z,31.20
2018-08-17T09:15:19.187Z,30.90
2018-08-17T09:17:47.508Z,30.60
2018-08-17T09:20:16.740Z,30.40
2018-08-17T09:22:45.196Z,30.10
2018-08-17T09:25:13.709Z,29.90
2018-08-17T09:27:42.042Z,29.60
2018-08-17T09:30:11.918Z,29.30
2018-08-17T09:32:40.528Z,29.20
2018-08-17T09:35:09.780Z,29.00
2018-08-17T09:37:38.151Z,28.70
2018-08-17T09:40:07.439Z,28.50
2018-08-17T09:42:35.946Z,28.20
2018-08-17T09:45:06.257Z,28.00
2018-08-17T09:47:34.818Z,28.10
2018-08-17T09:50:03.268Z,28.30
2018-08-17T09:52:31.874Z,28.30
2018-08-17T09:55:00.281Z,28.50
2018-08-17T09:57:28.831Z,28.70
2018-08-17T09:59:57.228Z,28.50
2018-08-17T10:02:31.315Z,28.10
2018-08-17T10:05:05.350Z,28.00
2018-08-17T10:07:39.125Z,27.90
2018-08-17T10:10:12.795Z,28.00
2018-08-17T10:12:41.163Z,28.40
2018-08-17T10:15:09.575Z,28.70
2018-08-17T10:17:37.925Z,28.80
2018-08-17T10:20:12.233Z,28.80
2018-08-17T10:22:40.539Z,28.70
2018-08-17T10:25:13.526Z,28.40
2018-08-17T10:27:41.899Z,28.30
2018-08-17T10:30:10.308Z,28.20
2018-08-17T10:32:46.460Z,28.10
2018-08-17T10:35:19.823Z,28.30
2018-08-17T10:37:48.186Z,28.20
2018-08-17T10:40:16.542Z,28.30
2018-08-17T10:42:44.901Z,28.40
2018-08-17T10:45:13.376Z,28.60
2018-08-17T10:47:41.671Z,28.90
2018-08-17T10:50:15.504Z,28.80
2018-08-17T10:52:43.918Z,29.00
2018-08-17T10:55:12.964Z,29.10
2018-08-17T10:57:41.306Z,29.00
2018-08-17T11:00:13.970Z,29.10
2018-08-17T11:02:43.238Z,29.30
2018-08-17T11:05:12.286Z,29.30
2018-08-17T11:07:40.640Z,29.30
2018-08-17T11:10:10.628Z,29.40
2018-08-17T11:12:39.997Z,29.40
2018-08-17T11:17:43.747Z,29.60
2018-08-17T11:20:12.336Z,29.60
2018-08-17T11:22:40.705Z,29.50
2018-08-17T11:25:09.307Z,29.60
2018-08-17T11:27:37.704Z,29.30
2018-08-17T11:30:08.429Z,29.30
2018-08-17T11:32:36.814Z,29.10
2018-08-17T11:35:05.265Z,29.10
2018-08-17T11:37:33.590Z,29.20
2018-08-17T11:40:03.094Z,29.20
2018-08-17T11:42:47.509Z,29.30
2018-08-17T11:45:18.966Z,29.10
2018-08-17T11:47:47.888Z,29.10
2018-08-17T11:50:18.843Z,29.10
2018-08-17T11:52:53.184Z,29.00
2018-08-17T11:55:22.463Z,28.80
2018-08-17T11:57:50.936Z,28.80
2018-08-17T12:00:19.329Z,28.70
2018-08-17T12:02:47.776Z,28.60
2018-08-17T12:05:16.084Z,28.50
2018-08-17T12:07:45.286Z,28.70
2018-08-17T12:10:13.643Z,28.80
2018-08-17T12:12:42.788Z,28.90
2018-08-17T12:15:11.817Z,29.00
2018-08-17T12:17:40.130Z,28.90
2018-08-17T12:20:08.710Z,29.00
2018-08-17T12:22:37.042Z,29.10
2018-08-17T12:25:06.609Z,29.20
2018-08-17T12:27:34.833Z,29.20
2018-08-17T12:30:03.210Z,29.20
2018-08-17T12:32:32.552Z,29.10
2018-08-17T12:35:00.831Z,29.00
2018-08-17T12:37:29.210Z,28.90
2018-08-17T12:39:57.567Z,28.90
2018-08-17T12:42:25.902Z,29.00
2018-08-17T12:44:57.685Z,28.80
2018-08-17T12:47:25.953Z,28.70
2018-08-17T12:49:54.234Z,28.70
2018-08-17T12:52:22.696Z,28.90
2018-08-17T12:54:50.984Z,29.00
2018-08-17T12:57:19.461Z,28.80
2018-08-17T12:59:47.812Z,28.70
2018-08-17T13:02:16.117Z,28.60
2018-08-17T13:04:44.427Z,28.60
2018-08-17T13:07:12.762Z,28.70
2018-08-17T13:09:41.087Z,28.80
2018-08-17T13:12:09.378Z,28.70
2018-08-17T13:14:37.699Z,28.70
2018-08-17T13:17:05.998Z,28.70
2018-08-17T13:19:34.330Z,28.60
2018-08-17T13:22:02.886Z,28.60
2018-08-17T13:24:31.486Z,28.60
2018-08-17T13:26:59.813Z,28.60
2018-08-17T13:29:28.112Z,28.70
2018-08-17T13:31:56.380Z,28.60
2018-08-17T13:34:24.672Z,28.80
2018-08-17T13:36:52.971Z,28.90
2018-08-17T13:39:21.314Z,29.00
2018-08-17T13:41:49.605Z,29.00
2018-08-17T13:44:17.953Z,28.90
2018-08-17T13:46:46.263Z,28.80
2018-08-17T13:49:14.651Z,28.90
2018-08-17T13:51:42.949Z,29.00
2018-08-17T13:54:11.402Z,29.00
2018-08-17T13:56:39.687Z,29.10
2018-08-17T13:59:08.018Z,28.90
2018-08-17T14:01:36.328Z,28.90
2018-08-17T14:04:04.870Z,29.00
2018-08-17T14:06:33.443Z,28.90
2018-08-17T14:09:02.073Z,29.00
2018-08-17T14:11:30.464Z,29.00
2018-08-17T14:13:58.964Z,29.10
2018-08-17T14:16:27.283Z,29.20
2018-08-17T14:18:55.583Z,29.20
2018-08-17T14:21:23.966Z,29.10
2018-08-17T14:23:52.277Z,29.10
2018-08-17T14:26:20.603Z,29.00
2018-08-17T14:28:48.923Z,29.00
2018-08-17T14:31:17.474Z,28.90
2018-08-17T14:33:45.795Z,29.00
2018-08-17T14:36:14.146Z,29.00
2018-08-17T14:38:42.600Z,29.10
2018-08-17T14:41:10.924Z,29.00
2018-08-17T14:43:39.240Z,29.10
2018-08-17T14:46:07.610Z,29.00
2018-08-17T14:48:35.921Z,29.20
2018-08-17T14:51:04.290Z,29.20
2018-08-17T14:53:32.576Z,29.20
2018-08-17T14:56:00.869Z,29.30
2018-08-17T14:58:29.230Z,29.40
2018-08-17T15:00:57.579Z,29.40
2018-08-17T15:03:25.843Z,29.40
2018-08-17T15:05:54.162Z,29.30
2018-08-17T15:08:22.458Z,29.20
2018-08-17T15:10:50.759Z,29.10
2018-08-17T15:13:19.114Z,29.10
2018-08-17T15:15:47.685Z,29.10
2018-08-17T15:18:15.975Z,29.10
2018-08-17T15:20:44.313Z,29.00
2018-08-17T15:23:12.713Z,29.00
2018-08-17T15:25:41.043Z,29.00
2018-08-17T15:28:09.366Z,29.00
2018-08-17T15:30:38.694Z,28.90
2018-08-17T15:33:07.119Z,29.00
2018-08-17T15:35:35.561Z,29.00
2018-08-17T15:38:03.836Z,29.00
2018-08-17T15:40:32.124Z,29.00
2018-08-17T15:43:04.764Z,29.00
2018-08-17T15:45:33.120Z,29.00
2018-08-17T15:48:01.438Z,29.00
2018-08-17T15:50:29.803Z,29.00
2018-08-17T15:52:58.107Z,29.00
2018-08-17T15:55:26.390Z,28.90
2018-08-17T15:57:54.701Z,28.80
2018-08-17T16:00:23.026Z,28.70
2018-08-17T16:02:51.327Z,28.50
2018-08-17T16:05:19.666Z,28.40
2018-08-17T16:07:47.944Z,28.30
2018-08-17T16:10:16.669Z,28.30
2018-08-17T16:12:45.527Z,28.30
2018-08-17T16:15:14.028Z,28.30
2018-08-17T16:17:42.330Z,28.30
2018-08-17T16:20:11.954Z,28.40
2018-08-17T16:22:40.793Z,28.30
2018-08-17T16:25:09.966Z,28.40
2018-08-17T16:27:38.367Z,28.30
2018-08-17T16:30:08.450Z,28.30
2018-08-17T16:32:37.042Z,28.40
2018-08-17T16:35:05.532Z,28.30
2018-08-17T16:37:34.026Z,28.20
2018-08-17T16:40:02.352Z,28.10
2018-08-17T16:42:35.526Z,27.90
2018-08-17T16:45:05.038Z,27.80
2018-08-17T16:47:33.405Z,27.70
2018-08-17T16:50:01.897Z,27.60
2018-08-17T16:52:30.243Z,27.60
2018-08-17T16:54:58.573Z,27.60
2018-08-17T16:57:26.989Z,27.50
2018-08-17T16:59:55.376Z,27.60
2018-08-17T17:02:24.258Z,27.50
2018-08-17T17:04:52.688Z,27.50
2018-08-17T17:07:26.712Z,27.50
2018-08-17T17:09:55.082Z,27.40
2018-08-17T17:12:23.497Z,27.30
2018-08-17T17:14:51.948Z,27.30
2018-08-17T17:17:20.376Z,27.30
2018-08-17T17:19:48.806Z,27.20
2018-08-17T17:22:17.155Z,27.10
2018-08-17T17:24:45.490Z,27.10
2018-08-17T17:27:15.379Z,27.10
2018-08-17T17:29:44.411Z,27.00
2018-08-17T17:32:12.771Z,27.00
2018-08-17T17:34:41.181Z,26.90
2018-08-17T17:37:09.546Z,26.80
2018-08-17T17:39:38.211Z,26.80
2018-08-17T17:42:06.590Z,26.70
2018-08-17T17:44:34.972Z,26.70
2018-08-17T17:47:03.264Z,26.70
2018-08-17T17:49:31.674Z,26.60
2018-08-17T17:52:00.082Z,26.60
2018-08-17T17:54:28.423Z,26.50
2018-08-17T17:57:13.383Z,26.40
2018-08-17T17:59:48.897Z,26.30
2018-08-17T18:02:17.188Z,26.30
2018-08-17T18:04:45.643Z,26.20
2018-08-17T18:07:13.913Z,26.20
2018-08-17T18:09:42.311Z,26.10
2018-08-17T18:12:10.630Z,26.10
2018-08-17T18:14:39.030Z,26.10
2018-08-17T18:17:08.154Z,26.00
2018-08-17T18:19:36.548Z,26.00
2018-08-17T18:22:05.284Z,26.00
2018-08-17T18:24:33.588Z,25.90
2018-08-17T18:27:01.945Z,25.80
2018-08-17T18:29:30.269Z,25.70
2018-08-17T18:31:58.599Z,25.70
2018-08-17T18:34:26.931Z,25.60
2018-08-17T18:36:55.255Z,25.60
2018-08-17T18:39:23.561Z,25.60
2018-08-17T18:41:51.853Z,25.50
2018-08-17T18:44:20.223Z,25.30
2018-08-17T18:46:48.531Z,24.90
2018-08-17T18:49:16.877Z,24.50
2018-08-17T18:51:45.231Z,24.30
2018-08-17T18:54:13.529Z,24.10
2018-08-17T18:56:42.054Z,23.80
2018-08-17T18:59:10.476Z,23.50
2018-08-17T19:01:39.053Z,23.30
2018-08-17T19:04:07.923Z,23.10
2018-08-17T19:06:36.248Z,23.00
2018-08-17T19:09:06.809Z,22.80
2018-08-17T19:11:35.121Z,22.70
2018-08-17T19:14:03.706Z,22.40
2018-08-17T19:16:32.002Z,22.30
2018-08-17T19:19:00.311Z,22.10
2018-08-17T19:21:28.689Z,21.90
2018-08-17T19:23:57.008Z,21.80
2018-08-17T19:26:25.304Z,21.70
2018-08-17T19:28:54.197Z,21.60
2018-08-17T19:31:22.529Z,21.50
2018-08-17T19:33:50.953Z,21.40
2018-08-17T19:36:19.264Z,21.40
2018-08-17T19:38:47.677Z,21.30
2018-08-17T19:41:16.112Z,21.20
2018-08-17T19:43:44.673Z,21.10
2018-08-17T19:46:13.373Z,20.90
2018-08-17T19:48:41.764Z,20.80
2018-08-17T19:51:15.448Z,20.70
2018-08-17T19:53:43.850Z,20.70
2018-08-17T19:56:12.384Z,20.50
2018-08-17T19:58:41.180Z,20.40
2018-08-17T20:01:09.474Z,20.20
2018-08-17T20:03:37.745Z,20.00
2018-08-17T20:06:06.088Z,20.00
2018-08-17T20:08:34.512Z,19.90
2018-08-17T20:11:02.903Z,19.80
2018-08-17T20:13:31.252Z,19.80
2018-08-17T20:15:59.792Z,19.90
2018-08-17T20:18:28.087Z,19.80
2018-08-17T20:20:56.423Z,19.90
2018-08-17T20:23:24.716Z,19.90
2018-08-17T20:25:53.187Z,19.80
2018-08-17T20:28:21.485Z,19.80
2018-08-17T20:30:49.857Z,19.80
2018-08-17T20:33:22.375Z,19.80
2018-08-17T20:35:50.888Z,19.70
2018-08-17T20:38:19.217Z,19.70
2018-08-17T20:40:47.675Z,19.70
2018-08-17T20:43:16.022Z,19.70
2018-08-17T20:45:44.489Z,19.60
2018-08-17T20:48:12.861Z,19.60
2018-08-17T20:50:41.325Z,19.50
2018-08-17T20:53:09.954Z,19.60
2018-08-17T20:55:38.307Z,19.50
2018-08-17T20:58:07.040Z,19.60
2018-08-17T21:00:35.458Z,19.60
2018-08-17T21:03:03.816Z,19.50
2018-08-17T21:05:32.344Z,19.40
2018-08-17T21:08:00.751Z,19.40
2018-08-17T21:10:29.329Z,19.40
2018-08-17T21:12:57.805Z,19.40
2018-08-17T21:15:26.644Z,19.40
2018-08-17T21:17:55.291Z,19.30
2018-08-17T21:20:23.683Z,19.30
2018-08-17T21:22:52.249Z,19.20
2018-08-17T21:25:20.874Z,19.20
2018-08-17T21:27:49.570Z,19.20
2018-08-17T21:30:18.096Z,19.30
2018-08-17T21:32:46.657Z,19.30
2018-08-17T21:35:14.974Z,19.30
2018-08-17T21:37:43.483Z,19.30
2018-08-17T21:40:17.591Z,19.30
2018-08-17T21:42:47.470Z,19.30
2018-08-17T21:45:16.026Z,19.30
2018-08-17T21:47:44.908Z,19.30
2018-08-17T21:50:14.453Z,19.40
2018-08-17T21:52:43.348Z,19.40
2018-08-17T21:55:12.071Z,19.40
2018-08-17T21:57:40.530Z,19.30
2018-08-17T22:00:14.440Z,19.40
2018-08-17T22:02:42.832Z,19.30
2018-08-17T22:05:15.432Z,19.30
2018-08-17T22:07:44.076Z,19.30
2018-08-17T22:10:12.523Z,19.40
2018-08-17T22:12:40.959Z,19.30
2018-08-17T22:15:09.592Z,19.30
2018-08-17T22:17:40.052Z,19.30
2018-08-17T22:20:09.521Z,19.30
2018-08-17T22:22:37.920Z,19.20
2018-08-17T22:25:11.870Z,19.10
2018-08-17T22:27:40.360Z,19.10
2018-08-17T22:30:15.838Z,19.10
2018-08-17T22:32:44.109Z,19.10
2018-08-17T22:35:12.798Z,19.10
2018-08-17T22:37:41.150Z,19.10
2018-08-17T22:40:09.537Z,19.10
2018-08-17T22:42:37.985Z,19.10
2018-08-17T22:45:06.816Z,19.10
2018-08-17T22:47:35.249Z,19.00
2018-08-17T22:50:03.656Z,18.90
2018-08-17T22:52:34.287Z,18.80
2018-08-17T22:55:04.120Z,18.80
2018-08-17T22:57:32.871Z,18.90
2018-08-17T23:00:15.636Z,18.90
2018-08-17T23:02:44.868Z,18.80
2018-08-17T23:05:15.192Z,18.90
2018-08-17T23:07:43.564Z,18.80
2018-08-17T23:10:15.137Z,18.90
2018-08-17T23:12:44.564Z,18.90
2018-08-17T23:15:13.253Z,18.90
2018-08-17T23:17:44.529Z,18.80
2018-08-17T23:20:12.888Z,18.80
2018-08-17T23:22:48.233Z,18.80
2018-08-17T23:25:16.774Z,18.80
2018-08-17T23:27:45.562Z,18.70
2018-08-17T23:30:14.038Z,18.70
2018-08-17T23:32:42.472Z,18.70
2018-08-17T23:35:10.876Z,18.50
2018-08-17T23:37:39.505Z,18.50
2018-08-17T23:40:08.817Z,18.40
2018-08-17T23:42:37.188Z,18.30
2018-08-17T23:45:07.351Z,18.30
2018-08-17T23:47:35.763Z,18.30
2018-08-17T23:50:04.672Z,18.30
2018-08-17T23:52:33.102Z,18.20
2018-08-17T23:55:01.751Z,18.20
2018-08-17T23:57:30.199Z,18.20
2018-08-17T23:59:59.654Z,18.30
